Norfolk, Virginia
Traffic Map
Current Weather Conditions
Norfolk, Virginia
Clear
Clear
77°
Feels Like: 78°
Wind Chill: 77° Ceiling: Unl
Heat Index: 78° Visibility: 10mi
Dew Point: 53° Wind: 0mph
Humidity: 43% Direction: ° ()
Pressure: 30.2in Gusts: 0mph
Raw Report DataKORF 281551Z 00000KT 10SM CLR 25/12 A3020 RMK AO2 SLP227 T02500117
Traffic Incident Summary
Active as of:
Severity:
Category:
InformationThere was an issue retrieving the traffic information for this location. Please try a different location or try again shortly.
Advertisements
Track Severe Weather on mobile